PWSweather.com
Personal Weather Stations
Station Observations
OBSERWACJEMETEO
Skórowo, SkorowoPL 76-230

SkórowoSkorowoPL 76-230

Lat: 54.5030556, Lon: 17.5277777

Elevation: 77

Station Type: WH2080

http://obserwacjemeteo.eu/

High Low Average
Temperature 67.1°F19.5°C 48.7°F9.3°C 57.0°F13.9°C
Dew Point 56.8°F13.8°C 47.9°F8.8°C 53.2°F11.8°C
Winds 5.4 mph 8.7 kmh Calm Calm 2.0 mph NE3.2 kmh NE
Wind Gusts 10.7 mph17.2 kmh -- 4.0 mph6.4 kmh
Humidity 99% 62% 88%
Pressure 29.95 in1014.2 mb 29.73 in1006.8 mb -
Precipitation 0.66 in16.8 mm - -
Hour Temp Dew Point Humidity Winds Wind Gusts Pressure Precip Precip Rate Daily Precip Total
12:00 AM 50.2°F10.1°C 49.6°F9.8°C 98% Calm Calm 0.7 mph1.1 kmh 29.95 in1014.2 mb 0.00 in0.0 mm 0.00 in0.0 mm 0.00 in0.0 mm
12:10 AM 50.4°F10.2°C 49.8°F9.9°C 98% Calm Calm 0.7 mph1.1 kmh 29.95 in1014.2 mb 0.00 in0.0 mm 0.00 in0.0 mm 0.00 in0.0 mm
12:20 AM 50.7°F10.4°C 50.5°F10.3°C 99% 0.7 mph NE1.1 kmh NE 1.6 mph2.6 kmh 29.95 in1014.2 mb 0.00 in0.0 mm 0.00 in0.0 mm 0.00 in0.0 mm
12:30 AM 50.7°F10.4°C 50.5°F10.3°C 99% 0.7 mph NE1.1 kmh NE 1.6 mph2.6 kmh 29.95 in1014.2 mb 0.00 in0.0 mm 0.00 in0.0 mm 0.00 in0.0 mm
12:40 AM 50.4°F10.2°C 49.8°F9.9°C 98% 0.7 mph ENE1.1 kmh ENE 1.6 mph2.6 kmh 29.94 in1013.9 mb 0.00 in0.0 mm 0.00 in0.0 mm 0.00 in0.0 mm
12:50 AM 50.4°F10.2°C 49.8°F9.9°C 98% Calm Calm 2.2 mph3.5 kmh 29.95 in1014.2 mb 0.00 in0.0 mm 0.00 in0.0 mm 0.00 in0.0 mm
01:00 AM 50.4°F10.2°C 49.8°F9.9°C 98% Calm Calm 1.6 mph2.6 kmh 29.94 in1013.9 mb 0.00 in0.0 mm 0.00 in0.0 mm 0.00 in0.0 mm
01:10 AM 50.4°F10.2°C 49.8°F9.9°C 98% Calm Calm 1.6 mph2.6 kmh 29.95 in1014.2 mb 0.00 in0.0 mm 0.00 in0.0 mm 0.00 in0.0 mm
01:20 AM 50.0°F10.0°C 49.5°F9.7°C 98% 0.7 mph NE1.1 kmh NE 1.6 mph2.6 kmh 29.93 in1013.5 mb 0.00 in0.0 mm 0.00 in0.0 mm 0.00 in0.0 mm
01:30 AM 50.2°F10.1°C 49.6°F9.8°C 98% 0.7 mph NNE1.1 kmh NNE 1.6 mph2.6 kmh 29.93 in1013.5 mb 0.00 in0.0 mm 0.00 in0.0 mm 0.00 in0.0 mm
01:40 AM 50.0°F10.0°C 49.5°F9.7°C 98% Calm Calm 1.6 mph2.6 kmh 29.93 in1013.5 mb 0.00 in0.0 mm 0.00 in0.0 mm 0.00 in0.0 mm
01:50 AM 50.0°F10.0°C 49.5°F9.7°C 98% 1.6 mph E2.6 kmh E 1.6 mph2.6 kmh 29.94 in1013.9 mb 0.00 in0.0 mm 0.00 in0.0 mm 0.00 in0.0 mm
02:00 AM 50.0°F10.0°C 49.5°F9.7°C 98% 0.7 mph ENE1.1 kmh ENE 1.6 mph2.6 kmh 29.94 in1013.9 mb 0.00 in0.0 mm 0.00 in0.0 mm 0.00 in0.0 mm
02:10 AM 50.0°F10.0°C 49.5°F9.7°C 98% 0.7 mph ENE1.1 kmh ENE 1.6 mph2.6 kmh 29.93 in1013.5 mb 0.00 in0.0 mm 0.00 in0.0 mm 0.00 in0.0 mm
02:20 AM 50.2°F10.1°C 49.6°F9.8°C 98% Calm Calm 1.6 mph2.6 kmh 29.93 in1013.5 mb 0.00 in0.0 mm 0.00 in0.0 mm 0.00 in0.0 mm
02:30 AM 50.0°F10.0°C 49.5°F9.7°C 98% Calm Calm 0.7 mph1.1 kmh 29.93 in1013.5 mb 0.00 in0.0 mm 0.00 in0.0 mm 0.00 in0.0 mm
02:40 AM 49.6°F9.8°C 49.1°F9.5°C 98% Calm Calm 0.7 mph1.1 kmh 29.93 in1013.5 mb 0.00 in0.0 mm 0.00 in0.0 mm 0.00 in0.0 mm
02:50 AM 49.1°F9.5°C 48.3°F9.1°C 97% Calm Calm -- 29.93 in1013.5 mb 0.00 in0.0 mm 0.00 in0.0 mm 0.00 in0.0 mm
03:00 AM 48.7°F9.3°C 47.9°F8.8°C 97% Calm Calm 0.7 mph1.1 kmh 29.94 in1013.9 mb 0.00 in0.0 mm 0.00 in0.0 mm 0.00 in0.0 mm
03:10 AM 49.1°F9.5°C 48.3°F9.1°C 97% 0.7 mph NNW1.1 kmh NNW 2.2 mph3.5 kmh 29.93 in1013.5 mb 0.00 in0.0 mm 0.00 in0.0 mm 0.00 in0.0 mm
03:20 AM 49.5°F9.7°C 48.6°F9.2°C 97% 0.7 mph NE1.1 kmh NE 1.6 mph2.6 kmh 29.94 in1013.9 mb 0.00 in0.0 mm 0.00 in0.0 mm 0.00 in0.0 mm
03:30 AM 49.8°F9.9°C 49.3°F9.6°C 98% Calm Calm 1.6 mph2.6 kmh 29.93 in1013.5 mb 0.00 in0.0 mm 0.00 in0.0 mm 0.00 in0.0 mm
03:40 AM 49.6°F9.8°C 49.1°F9.5°C 98% Calm Calm 0.7 mph1.1 kmh 29.93 in1013.5 mb 0.00 in0.0 mm 0.00 in0.0 mm 0.00 in0.0 mm
03:50 AM 49.5°F9.7°C 48.9°F9.4°C 98% Calm Calm -- 29.93 in1013.5 mb 0.00 in0.0 mm 0.00 in0.0 mm 0.00 in0.0 mm
04:00 AM 49.3°F9.6°C 48.7°F9.3°C 98% 0.7 mph NE1.1 kmh NE 1.6 mph2.6 kmh 29.93 in1013.5 mb 0.00 in0.0 mm 0.00 in0.0 mm 0.00 in0.0 mm
04:10 AM 49.5°F9.7°C 48.9°F9.4°C 98% Calm Calm 1.6 mph2.6 kmh 29.93 in1013.5 mb 0.00 in0.0 mm 0.00 in0.0 mm 0.00 in0.0 mm
04:20 AM 49.6°F9.8°C 49.1°F9.5°C 98% 0.7 mph NE1.1 kmh NE 1.6 mph2.6 kmh 29.93 in1013.5 mb 0.00 in0.0 mm 0.00 in0.0 mm 0.00 in0.0 mm
04:30 AM 49.5°F9.7°C 48.9°F9.4°C 98% Calm Calm 1.6 mph2.6 kmh 29.93 in1013.5 mb 0.00 in0.0 mm 0.00 in0.0 mm 0.00 in0.0 mm
04:40 AM 49.5°F9.7°C 48.9°F9.4°C 98% Calm Calm 1.6 mph2.6 kmh 29.93 in1013.5 mb 0.00 in0.0 mm 0.00 in0.0 mm 0.00 in0.0 mm
04:50 AM 49.5°F9.7°C 48.9°F9.4°C 98% Calm Calm 1.6 mph2.6 kmh 29.92 in1013.2 mb 0.00 in0.0 mm 0.00 in0.0 mm 0.00 in0.0 mm
05:00 AM 49.5°F9.7°C 48.9°F9.4°C 98% Calm Calm 0.7 mph1.1 kmh 29.92 in1013.2 mb 0.00 in0.0 mm 0.00 in0.0 mm 0.00 in0.0 mm
05:10 AM 49.5°F9.7°C 48.9°F9.4°C 98% Calm Calm 0.7 mph1.1 kmh 29.92 in1013.2 mb 0.00 in0.0 mm 0.00 in0.0 mm 0.00 in0.0 mm
05:20 AM 49.6°F9.8°C 49.4°F9.7°C 99% 0.7 mph NE1.1 kmh NE 1.6 mph2.6 kmh 29.92 in1013.2 mb 0.00 in0.0 mm 0.00 in0.0 mm 0.00 in0.0 mm
05:30 AM 50.2°F10.1°C 49.9°F9.9°C 99% 1.6 mph N2.6 kmh N 2.2 mph3.5 kmh 29.92 in1013.2 mb 0.00 in0.0 mm 0.00 in0.0 mm 0.00 in0.0 mm
05:40 AM 50.7°F10.4°C 50.5°F10.3°C 99% 0.7 mph NE1.1 kmh NE 2.2 mph3.5 kmh 29.92 in1013.2 mb 0.00 in0.0 mm 0.00 in0.0 mm 0.00 in0.0 mm
05:50 AM 50.7°F10.4°C 50.5°F10.3°C 99% 0.7 mph E1.1 kmh E 2.2 mph3.5 kmh 29.92 in1013.2 mb 0.00 in0.0 mm 0.00 in0.0 mm 0.00 in0.0 mm
06:00 AM 50.9°F10.5°C 50.6°F10.3°C 99% 1.6 mph NE2.6 kmh NE 2.2 mph3.5 kmh 29.92 in1013.2 mb 0.00 in0.0 mm 0.00 in0.0 mm 0.00 in0.0 mm
06:10 AM 51.3°F10.7°C 51.0°F10.6°C 99% 1.6 mph NE2.6 kmh NE 2.2 mph3.5 kmh 29.91 in1012.9 mb 0.00 in0.0 mm 0.00 in0.0 mm 0.00 in0.0 mm
06:20 AM 51.6°F10.9°C 51.4°F10.8°C 99% 1.6 mph NE2.6 kmh NE 2.2 mph3.5 kmh 29.91 in1012.9 mb 0.00 in0.0 mm 0.00 in0.0 mm 0.00 in0.0 mm
06:30 AM 52.0°F11.1°C 51.7°F10.9°C 99% 0.7 mph NE1.1 kmh NE 3.1 mph5.0 kmh 29.91 in1012.9 mb 0.00 in0.0 mm 0.00 in0.0 mm 0.00 in0.0 mm
06:40 AM 52.3°F11.3°C 51.8°F11.0°C 98% 2.2 mph NNE3.5 kmh NNE 3.8 mph6.1 kmh 29.91 in1012.9 mb 0.00 in0.0 mm 0.00 in0.0 mm 0.00 in0.0 mm
06:50 AM 53.1°F11.7°C 52.5°F11.4°C 98% 1.6 mph N2.6 kmh N 3.8 mph6.1 kmh 29.90 in1012.5 mb 0.00 in0.0 mm 0.00 in0.0 mm 0.00 in0.0 mm
07:00 AM 53.6°F12.0°C 52.5°F11.4°C 96% 1.6 mph NNE2.6 kmh NNE 3.1 mph5.0 kmh 29.90 in1012.5 mb 0.00 in0.0 mm 0.00 in0.0 mm 0.00 in0.0 mm
07:10 AM 54.3°F12.4°C 53.2°F11.8°C 96% 1.6 mph N2.6 kmh N 4.5 mph7.2 kmh 29.90 in1012.5 mb 0.00 in0.0 mm 0.00 in0.0 mm 0.00 in0.0 mm
07:20 AM 55.0°F12.8°C 52.5°F11.4°C 91% 1.6 mph NE2.6 kmh NE 3.1 mph5.0 kmh 29.90 in1012.5 mb 0.00 in0.0 mm 0.00 in0.0 mm 0.00 in0.0 mm
07:30 AM 55.6°F13.1°C 52.7°F11.5°C 90% 1.6 mph N2.6 kmh N 3.1 mph5.0 kmh 29.90 in1012.5 mb 0.00 in0.0 mm 0.00 in0.0 mm 0.00 in0.0 mm
07:40 AM 56.3°F13.5°C 52.8°F11.6°C 88% 0.7 mph NNE1.1 kmh NNE 3.8 mph6.1 kmh 29.90 in1012.5 mb 0.00 in0.0 mm 0.00 in0.0 mm 0.00 in0.0 mm
07:50 AM 57.0°F13.9°C 52.9°F11.6°C 86% 2.2 mph NE3.5 kmh NE 3.8 mph6.1 kmh 29.90 in1012.5 mb 0.00 in0.0 mm 0.00 in0.0 mm 0.00 in0.0 mm
08:00 AM 57.6°F14.2°C 52.4°F11.3°C 83% 2.2 mph NE3.5 kmh NE 4.5 mph7.2 kmh 29.90 in1012.5 mb 0.00 in0.0 mm 0.00 in0.0 mm 0.00 in0.0 mm
08:10 AM 57.9°F14.4°C 52.5°F11.4°C 82% 3.1 mph NNE5.0 kmh NNE 5.4 mph8.7 kmh 29.89 in1012.2 mb 0.00 in0.0 mm 0.00 in0.0 mm 0.00 in0.0 mm
08:20 AM 58.6°F14.8°C 52.8°F11.6°C 81% 3.1 mph ENE5.0 kmh ENE 4.5 mph7.2 kmh 29.89 in1012.2 mb 0.00 in0.0 mm 0.00 in0.0 mm 0.00 in0.0 mm
08:30 AM 60.6°F15.9°C 54.8°F12.7°C 81% 3.8 mph NE6.1 kmh NE 6.9 mph11.1 kmh 29.90 in1012.5 mb 0.00 in0.0 mm 0.00 in0.0 mm 0.00 in0.0 mm
08:40 AM 62.8°F17.1°C 54.4°F12.4°C 74% 3.1 mph NE5.0 kmh NE 6.9 mph11.1 kmh 29.89 in1012.2 mb 0.00 in0.0 mm 0.00 in0.0 mm 0.00 in0.0 mm
08:50 AM 63.5°F17.5°C 53.6°F12.0°C 70% 3.8 mph NE6.1 kmh NE 9.2 mph14.8 kmh 29.89 in1012.2 mb 0.00 in0.0 mm 0.00 in0.0 mm 0.00 in0.0 mm
09:00 AM 64.8°F18.2°C 54.0°F12.2°C 68% 3.1 mph NE5.0 kmh NE 5.4 mph8.7 kmh 29.89 in1012.2 mb 0.00 in0.0 mm 0.00 in0.0 mm 0.00 in0.0 mm
09:10 AM 64.6°F18.1°C 53.8°F12.1°C 68% 2.2 mph NE3.5 kmh NE 3.8 mph6.1 kmh 29.88 in1011.9 mb 0.00 in0.0 mm 0.00 in0.0 mm 0.00 in0.0 mm
09:20 AM 64.9°F18.3°C 54.1°F12.3°C 68% 1.6 mph SW2.6 kmh SW 5.4 mph8.7 kmh 29.88 in1011.9 mb 0.00 in0.0 mm 0.00 in0.0 mm 0.00 in0.0 mm
09:30 AM 64.6°F18.1°C 53.0°F11.7°C 66% 3.1 mph W5.0 kmh W 6.0 mph9.7 kmh 29.88 in1011.9 mb 0.00 in0.0 mm 0.00 in0.0 mm 0.00 in0.0 mm
09:40 AM 65.3°F18.5°C 54.5°F12.5°C 68% 1.6 mph NE2.6 kmh NE 6.0 mph9.7 kmh 29.88 in1011.9 mb 0.00 in0.0 mm 0.00 in0.0 mm 0.00 in0.0 mm
09:50 AM 64.4°F18.0°C 52.4°F11.3°C 65% 4.5 mph NE7.2 kmh NE 6.9 mph11.1 kmh 29.88 in1011.9 mb 0.00 in0.0 mm 0.00 in0.0 mm 0.00 in0.0 mm
10:00 AM 64.2°F17.9°C 53.5°F11.9°C 68% 3.1 mph ENE5.0 kmh ENE 8.3 mph13.4 kmh 29.88 in1011.9 mb 0.00 in0.0 mm 0.00 in0.0 mm 0.00 in0.0 mm
10:10 AM 65.7°F18.7°C 53.6°F12.0°C 65% 3.1 mph NE5.0 kmh NE 6.9 mph11.1 kmh 29.88 in1011.9 mb 0.00 in0.0 mm 0.00 in0.0 mm 0.00 in0.0 mm
10:20 AM 65.1°F18.4°C 53.5°F11.9°C 66% 3.1 mph NE5.0 kmh NE 5.4 mph8.7 kmh 29.88 in1011.9 mb 0.00 in0.0 mm 0.00 in0.0 mm 0.00 in0.0 mm
10:30 AM 64.8°F18.2°C 52.7°F11.5°C 65% 3.8 mph ENE6.1 kmh ENE 8.3 mph13.4 kmh 29.88 in1011.9 mb 0.00 in0.0 mm 0.00 in0.0 mm 0.00 in0.0 mm
10:40 AM 66.4°F19.1°C 53.9°F12.2°C 64% 3.1 mph NE5.0 kmh NE 6.9 mph11.1 kmh 29.88 in1011.9 mb 0.00 in0.0 mm 0.00 in0.0 mm 0.00 in0.0 mm
10:50 AM 65.3°F18.5°C 52.4°F11.3°C 63% 4.5 mph E7.2 kmh E 10.7 mph17.2 kmh 29.88 in1011.9 mb 0.00 in0.0 mm 0.00 in0.0 mm 0.00 in0.0 mm
11:00 AM 66.0°F18.9°C 53.5°F11.9°C 64% 2.2 mph NNE3.5 kmh NNE 8.3 mph13.4 kmh 29.88 in1011.9 mb 0.00 in0.0 mm 0.00 in0.0 mm 0.00 in0.0 mm
11:10 AM 66.6°F19.2°C 53.6°F12.0°C 63% 3.1 mph ENE5.0 kmh ENE 7.6 mph12.2 kmh 29.88 in1011.9 mb 0.00 in0.0 mm 0.00 in0.0 mm 0.00 in0.0 mm
11:20 AM 66.9°F19.4°C 53.9°F12.2°C 63% 2.2 mph NNE3.5 kmh NNE 5.4 mph8.7 kmh 29.87 in1011.5 mb 0.00 in0.0 mm 0.00 in0.0 mm 0.00 in0.0 mm
11:30 AM 67.1°F19.5°C 53.7°F12.1°C 62% 3.1 mph SSE5.0 kmh SSE 6.9 mph11.1 kmh 29.87 in1011.5 mb 0.00 in0.0 mm 0.00 in0.0 mm 0.00 in0.0 mm
11:40 AM 66.9°F19.4°C 53.5°F11.9°C 62% 3.1 mph NE5.0 kmh NE 6.9 mph11.1 kmh 29.86 in1011.2 mb 0.00 in0.0 mm 0.00 in0.0 mm 0.00 in0.0 mm
11:50 AM 65.7°F18.7°C 52.3°F11.3°C 62% 3.8 mph N6.1 kmh N 6.0 mph9.7 kmh 29.87 in1011.5 mb 0.00 in0.0 mm 0.00 in0.0 mm 0.00 in0.0 mm
12:00 PM 64.4°F18.0°C 51.5°F10.8°C 63% 2.2 mph E3.5 kmh E 7.6 mph12.2 kmh 29.86 in1011.2 mb 0.00 in0.0 mm 0.00 in0.0 mm 0.00 in0.0 mm
12:10 PM 62.6°F17.0°C 52.3°F11.3°C 69% 4.5 mph ENE7.2 kmh ENE 8.3 mph13.4 kmh 29.86 in1011.2 mb 0.00 in0.0 mm 0.00 in0.0 mm 0.00 in0.0 mm
12:20 PM 63.1°F17.3°C 53.6°F12.0°C 71% 3.1 mph ESE5.0 kmh ESE 6.9 mph11.1 kmh 29.85 in1010.8 mb 0.00 in0.0 mm 0.00 in0.0 mm 0.00 in0.0 mm
12:30 PM 64.0°F17.8°C 52.5°F11.4°C 66% 3.1 mph E5.0 kmh E 9.2 mph14.8 kmh 29.85 in1010.8 mb 0.00 in0.0 mm 0.00 in0.0 mm 0.00 in0.0 mm
12:40 PM 63.1°F17.3°C 52.8°F11.6°C 69% 5.4 mph NW8.7 kmh NW 9.2 mph14.8 kmh 29.84 in1010.5 mb 0.00 in0.0 mm 0.00 in0.0 mm 0.00 in0.0 mm
12:50 PM 62.2°F16.8°C 52.7°F11.5°C 71% 4.5 mph NE7.2 kmh NE 10.7 mph17.2 kmh 29.85 in1010.8 mb 0.00 in0.0 mm 0.00 in0.0 mm 0.00 in0.0 mm
01:00 PM 61.7°F16.5°C 52.6°F11.4°C 72% 2.2 mph NE3.5 kmh NE 6.9 mph11.1 kmh 29.84 in1010.5 mb 0.00 in0.0 mm 0.00 in0.0 mm 0.00 in0.0 mm
01:10 PM 61.7°F16.5°C 53.0°F11.7°C 73% 3.8 mph ENE6.1 kmh ENE 6.0 mph9.7 kmh 29.84 in1010.5 mb 0.00 in0.0 mm 0.00 in0.0 mm 0.00 in0.0 mm
01:20 PM 61.5°F16.4°C 52.8°F11.6°C 73% 4.5 mph N7.2 kmh N 7.6 mph12.2 kmh 29.83 in1010.2 mb 0.00 in0.0 mm 0.00 in0.0 mm 0.00 in0.0 mm
01:30 PM 61.5°F16.4°C 52.8°F11.6°C 73% 1.6 mph NNE2.6 kmh NNE 7.6 mph12.2 kmh 29.83 in1010.2 mb 0.00 in0.0 mm 0.00 in0.0 mm 0.00 in0.0 mm
01:40 PM 61.9°F16.6°C 53.1°F11.7°C 73% 3.1 mph NE5.0 kmh NE 5.4 mph8.7 kmh 29.83 in1010.2 mb 0.00 in0.0 mm 0.00 in0.0 mm 0.00 in0.0 mm
01:50 PM 61.9°F16.6°C 53.1°F11.7°C 73% 3.1 mph NE5.0 kmh NE 5.4 mph8.7 kmh 29.83 in1010.2 mb 0.00 in0.0 mm 0.00 in0.0 mm 0.00 in0.0 mm
02:00 PM 62.1°F16.7°C 53.3°F11.8°C 73% 3.1 mph NNE5.0 kmh NNE 6.9 mph11.1 kmh 29.82 in1009.8 mb 0.00 in0.0 mm 0.00 in0.0 mm 0.00 in0.0 mm
02:10 PM 62.2°F16.8°C 53.5°F11.9°C 73% 2.2 mph ESE3.5 kmh ESE 6.0 mph9.7 kmh 29.81 in1009.5 mb 0.00 in0.0 mm 0.00 in0.0 mm 0.00 in0.0 mm
02:20 PM 62.2°F16.8°C 53.5°F11.9°C 73% 3.8 mph NNE6.1 kmh NNE 5.4 mph8.7 kmh 29.82 in1009.8 mb 0.00 in0.0 mm 0.00 in0.0 mm 0.00 in0.0 mm
02:30 PM 62.2°F16.8°C 53.5°F11.9°C 73% 3.8 mph E6.1 kmh E 5.4 mph8.7 kmh 29.82 in1009.8 mb 0.00 in0.0 mm 0.00 in0.0 mm 0.00 in0.0 mm
02:40 PM 61.7°F16.5°C 53.3°F11.8°C 74% 4.5 mph NE7.2 kmh NE 6.0 mph9.7 kmh 29.82 in1009.8 mb 0.00 in0.0 mm 0.00 in0.0 mm 0.00 in0.0 mm
02:50 PM 61.2°F16.2°C 53.9°F12.2°C 77% 2.2 mph NE3.5 kmh NE 6.0 mph9.7 kmh 29.81 in1009.5 mb 0.00 in0.0 mm 0.00 in0.0 mm 0.00 in0.0 mm
03:00 PM 60.8°F16.0°C 54.3°F12.4°C 79% 3.1 mph N5.0 kmh N 5.4 mph8.7 kmh 29.81 in1009.5 mb 0.00 in0.0 mm 0.00 in0.0 mm 0.00 in0.0 mm
03:10 PM 60.3°F15.7°C 53.7°F12.1°C 79% 1.6 mph N2.6 kmh N 5.4 mph8.7 kmh 29.81 in1009.5 mb 0.00 in0.0 mm 0.00 in0.0 mm 0.00 in0.0 mm
03:20 PM 59.9°F15.5°C 53.7°F12.1°C 80% 3.1 mph NE5.0 kmh NE 6.9 mph11.1 kmh 29.81 in1009.5 mb 0.00 in0.0 mm 0.00 in0.0 mm 0.00 in0.0 mm
03:30 PM 59.4°F15.2°C 53.9°F12.2°C 82% 2.2 mph NE3.5 kmh NE 5.4 mph8.7 kmh 29.81 in1009.5 mb 0.00 in0.0 mm 0.00 in0.0 mm 0.00 in0.0 mm
03:40 PM 59.0°F15.0°C 53.9°F12.2°C 83% 1.6 mph NNE2.6 kmh NNE 5.4 mph8.7 kmh 29.81 in1009.5 mb 0.01 in0.3 mm 0.06 in1.5 mm 0.01 in0.3 mm
03:50 PM 58.6°F14.8°C 54.2°F12.3°C 85% 0.7 mph NW1.1 kmh NW 3.1 mph5.0 kmh 29.80 in1009.1 mb 0.01 in0.3 mm 0.00 in0.0 mm 0.01 in0.3 mm
04:00 PM 58.5°F14.7°C 54.3°F12.4°C 86% 0.7 mph NNE1.1 kmh NNE 3.1 mph5.0 kmh 29.81 in1009.5 mb 0.02 in0.5 mm 0.01 in0.3 mm 0.02 in0.5 mm
04:10 PM 58.3°F14.6°C 54.4°F12.4°C 87% 2.2 mph N3.5 kmh N 3.8 mph6.1 kmh 29.81 in1009.5 mb 0.02 in0.5 mm 0.00 in0.0 mm 0.02 in0.5 mm
04:20 PM 58.1°F14.5°C 54.6°F12.6°C 88% 3.8 mph WSW6.1 kmh WSW 5.4 mph8.7 kmh 29.80 in1009.1 mb 0.04 in1.0 mm 0.12 in3.0 mm 0.04 in1.0 mm
04:30 PM 57.9°F14.4°C 55.0°F12.8°C 90% 3.8 mph N6.1 kmh N 5.4 mph8.7 kmh 29.79 in1008.8 mb 0.05 in1.3 mm 0.06 in1.5 mm 0.05 in1.3 mm
04:40 PM 57.6°F14.2°C 55.0°F12.8°C 91% 3.8 mph ENE6.1 kmh ENE 5.4 mph8.7 kmh 29.80 in1009.1 mb 0.08 in2.0 mm 0.18 in4.6 mm 0.09 in2.3 mm
04:50 PM 57.6°F14.2°C 55.3°F12.9°C 92% 2.2 mph NE3.5 kmh NE 5.4 mph8.7 kmh 29.79 in1008.8 mb 0.09 in2.3 mm 0.06 in1.5 mm 0.11 in2.8 mm
05:00 PM 57.6°F14.2°C 55.6°F13.1°C 93% 1.6 mph NE2.6 kmh NE 4.5 mph7.2 kmh 29.79 in1008.8 mb 0.08 in2.0 mm 0.00 in0.0 mm 0.11 in2.8 mm
05:10 PM 57.6°F14.2°C 55.6°F13.1°C 93% 2.2 mph ENE3.5 kmh ENE 6.9 mph11.1 kmh 29.79 in1008.8 mb 0.09 in2.3 mm 0.06 in1.5 mm 0.12 in3.0 mm
05:20 PM 57.6°F14.2°C 55.9°F13.3°C 94% 3.8 mph NE6.1 kmh NE 6.0 mph9.7 kmh 29.79 in1008.8 mb 0.09 in2.3 mm 0.00 in0.0 mm 0.13 in3.3 mm
05:30 PM 57.6°F14.2°C 55.9°F13.3°C 94% 3.1 mph NE5.0 kmh NE 6.0 mph9.7 kmh 29.79 in1008.8 mb 0.07 in1.8 mm 0.00 in0.0 mm 0.13 in3.3 mm
05:40 PM 57.6°F14.2°C 56.1°F13.4°C 95% 3.8 mph NE6.1 kmh NE 6.0 mph9.7 kmh 29.78 in1008.5 mb 0.05 in1.3 mm 0.00 in0.0 mm 0.14 in3.6 mm
05:50 PM 57.6°F14.2°C 56.1°F13.4°C 95% 2.2 mph E3.5 kmh E 6.0 mph9.7 kmh 29.79 in1008.8 mb 0.05 in1.3 mm 0.00 in0.0 mm 0.15 in3.8 mm
06:00 PM 57.6°F14.2°C 56.1°F13.4°C 95% 1.6 mph NE2.6 kmh NE 5.4 mph8.7 kmh 29.78 in1008.5 mb 0.07 in1.8 mm 0.02 in0.5 mm 0.18 in4.6 mm
06:10 PM 57.6°F14.2°C 56.4°F13.6°C 96% 2.2 mph NE3.5 kmh NE 4.5 mph7.2 kmh 29.79 in1008.8 mb 0.07 in1.8 mm 0.00 in0.0 mm 0.19 in4.8 mm
06:20 PM 57.6°F14.2°C 56.4°F13.6°C 96% 2.2 mph E3.5 kmh E 3.8 mph6.1 kmh 29.78 in1008.5 mb 0.07 in1.8 mm 0.00 in0.0 mm 0.20 in5.1 mm
06:30 PM 57.6°F14.2°C 56.4°F13.6°C 96% 2.2 mph NE3.5 kmh NE 3.8 mph6.1 kmh 29.79 in1008.8 mb 0.09 in2.3 mm 0.12 in3.0 mm 0.22 in5.6 mm
06:40 PM 57.6°F14.2°C 56.4°F13.6°C 96% 0.7 mph NE1.1 kmh NE 5.4 mph8.7 kmh 29.78 in1008.5 mb 0.13 in3.3 mm 0.24 in6.1 mm 0.27 in6.9 mm
06:50 PM 57.6°F14.2°C 56.7°F13.7°C 97% 2.2 mph NE3.5 kmh NE 5.4 mph8.7 kmh 29.78 in1008.5 mb 0.14 in3.6 mm 0.06 in1.5 mm 0.30 in7.6 mm
07:00 PM 57.6°F14.2°C 56.7°F13.7°C 97% 1.6 mph NNW2.6 kmh NNW 3.8 mph6.1 kmh 29.78 in1008.5 mb 0.13 in3.3 mm 0.00 in0.0 mm 0.31 in7.9 mm
07:10 PM 57.6°F14.2°C 56.7°F13.7°C 97% Calm Calm 2.2 mph3.5 kmh 29.79 in1008.8 mb 0.17 in4.3 mm 0.24 in6.1 mm 0.37 in9.4 mm
07:20 PM 57.6°F14.2°C 56.7°F13.7°C 97% 0.7 mph W1.1 kmh W 2.2 mph3.5 kmh 29.79 in1008.8 mb 0.21 in5.3 mm 0.24 in6.1 mm 0.41 in10.4 mm
07:30 PM 57.6°F14.2°C 56.7°F13.7°C 97% Calm Calm 1.6 mph2.6 kmh 29.79 in1008.8 mb 0.26 in6.6 mm 0.30 in7.6 mm 0.48 in12.2 mm
07:40 PM 57.6°F14.2°C 56.7°F13.7°C 97% 0.7 mph SE1.1 kmh SE 1.6 mph2.6 kmh 29.79 in1008.8 mb 0.26 in6.6 mm 0.00 in0.0 mm 0.53 in13.5 mm
07:50 PM 57.6°F14.2°C 56.7°F13.7°C 97% Calm Calm 2.2 mph3.5 kmh 29.79 in1008.8 mb 0.35 in8.9 mm 0.54 in13.7 mm 0.65 in16.5 mm
08:00 PM 57.4°F14.1°C 56.8°F13.8°C 98% Calm Calm 1.6 mph2.6 kmh 29.78 in1008.5 mb 0.35 in8.9 mm 0.00 in0.0 mm 0.66 in16.8 mm
08:10 PM 57.4°F14.1°C 56.8°F13.8°C 98% 0.7 mph WSW1.1 kmh WSW 1.6 mph2.6 kmh 29.78 in1008.5 mb 0.30 in7.6 mm 0.00 in0.0 mm 0.66 in16.8 mm
08:20 PM 57.4°F14.1°C 56.8°F13.8°C 98% Calm Calm 1.6 mph2.6 kmh 29.78 in1008.5 mb 0.25 in6.4 mm 0.00 in0.0 mm 0.66 in16.8 mm
08:30 PM 57.2°F14.0°C 56.7°F13.7°C 98% Calm Calm -- 29.77 in1008.1 mb 0.18 in4.6 mm 0.00 in0.0 mm 0.66 in16.8 mm
08:40 PM 57.0°F13.9°C 56.5°F13.6°C 98% Calm Calm 0.7 mph1.1 kmh 29.77 in1008.1 mb 0.13 in3.3 mm 0.00 in0.0 mm 0.66 in16.8 mm
08:50 PM 57.0°F13.9°C 56.5°F13.6°C 98% Calm Calm 0.7 mph1.1 kmh 29.76 in1007.8 mb 0.00 in0.0 mm 0.00 in0.0 mm 0.66 in16.8 mm
09:00 PM 56.8°F13.8°C 56.3°F13.5°C 98% Calm Calm 0.7 mph1.1 kmh 29.76 in1007.8 mb 0.00 in0.0 mm 0.00 in0.0 mm 0.66 in16.8 mm
09:10 PM 56.8°F13.8°C 56.3°F13.5°C 98% Calm Calm 0.7 mph1.1 kmh 29.75 in1007.5 mb 0.00 in0.0 mm 0.00 in0.0 mm 0.66 in16.8 mm
09:20 PM 56.8°F13.8°C 56.3°F13.5°C 98% Calm Calm 0.7 mph1.1 kmh 29.75 in1007.5 mb 0.00 in0.0 mm 0.00 in0.0 mm 0.66 in16.8 mm
09:30 PM 56.8°F13.8°C 56.3°F13.5°C 98% Calm Calm 0.7 mph1.1 kmh 29.75 in1007.5 mb 0.00 in0.0 mm 0.00 in0.0 mm 0.66 in16.8 mm
09:40 PM 56.8°F13.8°C 56.6°F13.7°C 99% Calm Calm 0.7 mph1.1 kmh 29.75 in1007.5 mb 0.00 in0.0 mm 0.00 in0.0 mm 0.66 in16.8 mm
09:50 PM 56.8°F13.8°C 56.6°F13.7°C 99% Calm Calm 0.7 mph1.1 kmh 29.74 in1007.1 mb 0.00 in0.0 mm 0.00 in0.0 mm 0.66 in16.8 mm
10:00 PM 56.8°F13.8°C 56.6°F13.7°C 99% Calm Calm 0.7 mph1.1 kmh 29.75 in1007.5 mb 0.00 in0.0 mm 0.00 in0.0 mm 0.66 in16.8 mm
10:10 PM 56.8°F13.8°C 56.6°F13.7°C 99% Calm Calm 0.7 mph1.1 kmh 29.75 in1007.5 mb 0.00 in0.0 mm 0.00 in0.0 mm 0.66 in16.8 mm
10:20 PM 56.8°F13.8°C 56.6°F13.7°C 99% Calm Calm -- 29.75 in1007.5 mb 0.00 in0.0 mm 0.00 in0.0 mm 0.66 in16.8 mm
10:30 PM 56.7°F13.7°C 56.4°F13.6°C 99% Calm Calm -- 29.75 in1007.5 mb 0.00 in0.0 mm 0.00 in0.0 mm 0.66 in16.8 mm
10:40 PM 56.7°F13.7°C 56.4°F13.6°C 99% Calm Calm 0.7 mph1.1 kmh 29.74 in1007.1 mb 0.00 in0.0 mm 0.00 in0.0 mm 0.66 in16.8 mm
10:50 PM 56.7°F13.7°C 56.4°F13.6°C 99% Calm Calm 0.7 mph1.1 kmh 29.74 in1007.1 mb 0.00 in0.0 mm 0.00 in0.0 mm 0.66 in16.8 mm
11:00 PM 56.7°F13.7°C 56.4°F13.6°C 99% Calm Calm 0.7 mph1.1 kmh 29.74 in1007.1 mb 0.00 in0.0 mm 0.00 in0.0 mm 0.41 in10.4 mm
11:10 PM 56.7°F13.7°C 56.4°F13.6°C 99% Calm Calm -- 29.73 in1006.8 mb 0.00 in0.0 mm 0.00 in0.0 mm 0.41 in10.4 mm
11:20 PM 56.7°F13.7°C 56.4°F13.6°C 99% Calm Calm 0.7 mph1.1 kmh 29.73 in1006.8 mb 0.00 in0.0 mm 0.00 in0.0 mm 0.41 in10.4 mm
11:30 PM 56.8°F13.8°C 56.6°F13.7°C 99% Calm Calm 1.6 mph2.6 kmh 29.74 in1007.1 mb 0.00 in0.0 mm 0.00 in0.0 mm 0.41 in10.4 mm
11:40 PM 56.8°F13.8°C 56.6°F13.7°C 99% Calm Calm 1.6 mph2.6 kmh 29.74 in1007.1 mb 0.00 in0.0 mm 0.00 in0.0 mm 0.41 in10.4 mm
11:50 PM 56.8°F13.8°C 56.6°F13.7°C 99% Calm Calm 1.6 mph2.6 kmh 29.74 in1007.1 mb 0.00 in0.0 mm 0.00 in0.0 mm 0.41 in10.4 mm